1NC3 weather

Fletcher's Airport
Elizabeth City, North Carolina, United States

Public forecast

Using degrees Fahrenheit for public forecast. Weather courtesy of forecast.io.

METAR (pilot weather report)

Closest report is Elizabeth City Regional Airport & Coast Guard Air Station, 5.0 nm (9.2 km) NNW. Retrieved 2019/04/19 13:54 UTC (30 minutes ago):

KECG 191354Z 18018G26KT 10SM BKN031 BKN040 BKN075 24/18 A2988 RMK AO2 PK WND 16026/1348 SLP116 T02440178

TAF (pilot weather forecast)

Closest forecast is Elizabeth City Regional Airport & Coast Guard Air Station, 5.0 nm (9.2 km) NNW. Retrieved 2019/04/19 12:24 UTC (2 hours ago):

TAF TAF KECG 191120Z 1912/2012 17013G18KT P6SM OVC070 FM191500 18019G30KT P6SM VCSH OVC040 FM191800 18020G34KT P6SM SHRA SCT015 OVC040 FM200300 18020G30KT 5SM TSRA OVC020CB